createdAt,value
2018-09-21T00:00:34.743Z,56.61
2018-09-21T00:01:41.408Z,57.19
2018-09-21T00:02:48.586Z,57.57
2018-09-21T00:04:58.640Z,57.38
2018-09-21T00:06:13.087Z,57.45
2018-09-21T00:07:08.077Z,57.45
2018-09-21T00:08:23.245Z,57.38
2018-09-21T00:09:26.122Z,57.38
2018-09-21T00:10:28.283Z,57.26
2018-09-21T00:11:44.166Z,57.35
2018-09-21T00:12:55.440Z,57.64
2018-09-21T00:14:04.154Z,58.03
2018-09-21T00:14:57.918Z,57.74
2018-09-21T00:15:53.727Z,57.74
2018-09-21T00:17:09.504Z,57.84
2018-09-21T00:18:14.534Z,57.74
2018-09-21T00:19:14.132Z,58.32
2018-09-21T00:20:22.133Z,58.12
2018-09-21T00:21:33.403Z,58.22
2018-09-21T00:22:33.822Z,58.51
2018-09-21T00:23:24.035Z,57.93
2018-09-21T00:24:38.757Z,58.32
2018-09-21T00:25:47.674Z,58.22
2018-09-21T00:26:51.166Z,58.12
2018-09-21T00:28:10.322Z,58.12
2018-09-21T00:30:02.781Z,58.61
2018-09-21T00:31:22.542Z,58.61
2018-09-21T00:32:34.420Z,58.03
2018-09-21T00:33:29.411Z,58.42
2018-09-21T00:35:34.958Z,59.19
2018-09-21T00:36:34.352Z,58.90
2018-09-21T00:37:52.794Z,59.09
2018-09-21T00:39:00.075Z,58.80
2018-09-21T00:40:09.402Z,59.19
2018-09-21T00:41:04.191Z,59.00
2018-09-21T00:42:03.377Z,59.09
2018-09-21T00:43:20.184Z,58.70
2018-09-21T00:44:24.286Z,58.90
2018-09-21T00:45:39.859Z,59.09
2018-09-21T00:46:25.839Z,59.28
2018-09-21T00:47:38.545Z,59.19
2018-09-21T00:48:45.825Z,59.09
2018-09-21T00:49:56.797Z,58.90
2018-09-21T00:50:48.925Z,59.19
2018-09-21T00:51:48.306Z,59.00
2018-09-21T00:53:10.026Z,58.80
2018-09-21T00:55:13.729Z,59.19
2018-09-21T00:56:28.692Z,59.09
2018-09-21T00:57:27.063Z,59.00
2018-09-21T00:58:26.045Z,58.70
2018-09-21T00:59:45.615Z,59.00
2018-09-21T01:00:37.532Z,59.28
2018-09-21T01:01:37.232Z,59.28
2018-09-21T01:02:49.124Z,58.90
2018-09-21T01:03:56.199Z,59.28
2018-09-21T01:05:01.533Z,59.00
2018-09-21T01:06:02.157Z,59.48
2018-09-21T01:07:17.833Z,59.28
2018-09-21T01:08:29.108Z,59.28
2018-09-21T01:09:25.836Z,59.00
2018-09-21T01:10:27.491Z,59.00
2018-09-21T01:12:50.540Z,59.38
2018-09-21T01:13:42.151Z,59.41
2018-09-21T01:16:10.535Z,60.06
2018-09-21T01:17:05.936Z,59.38
2018-09-21T01:18:13.219Z,59.28
2018-09-21T01:19:19.677Z,59.02
2018-09-21T01:22:27.278Z,59.02
2018-09-21T01:23:38.860Z,59.12
2018-09-21T01:24:40.007Z,59.02
2018-09-21T01:26:00.996Z,59.22
2018-09-21T01:26:58.959Z,59.02
2018-09-21T01:29:08.703Z,59.89
2018-09-21T01:30:21.213Z,59.22
2018-09-21T01:31:10.360Z,59.51
2018-09-21T01:32:18.766Z,58.93
2018-09-21T01:33:30.350Z,59.31
2018-09-21T01:34:37.417Z,59.12
2018-09-21T01:35:32.410Z,59.22
2018-09-21T01:37:57.720Z,59.02
2018-09-21T01:38:51.994Z,59.51
2018-09-21T01:40:11.253Z,59.31
2018-09-21T01:41:03.069Z,58.93
2018-09-21T01:42:16.081Z,59.02
2018-09-21T01:44:21.631Z,58.83
2018-09-21T01:45:22.464Z,58.93
2018-09-21T01:46:38.650Z,59.41
2018-09-21T01:47:47.365Z,59.22
2018-09-21T01:48:54.233Z,59.22
2018-09-21T01:49:46.870Z,59.31
2018-09-21T01:51:00.606Z,59.70
2018-09-21T01:53:13.428Z,59.41
2018-09-21T01:54:23.360Z,59.41
2018-09-21T01:55:23.881Z,59.41
2018-09-21T01:56:40.478Z,59.99
2018-09-21T01:58:41.622Z,59.70
2018-09-21T01:59:55.965Z,59.80
2018-09-21T02:00:48.032Z,59.99
2018-09-21T02:01:50.147Z,59.70
2018-09-21T02:03:05.721Z,59.80
2018-09-21T02:03:52.726Z,60.57
2018-09-21T02:05:03.384Z,59.99
2018-09-21T02:06:08.922Z,59.99
2018-09-21T02:07:22.959Z,59.80
2018-09-21T02:08:29.012Z,60.09
2018-09-21T02:09:34.457Z,59.51
2018-09-21T02:10:29.848Z,59.51
2018-09-21T02:11:41.731Z,59.80
2018-09-21T02:12:47.063Z,59.80
2018-09-21T02:13:49.839Z,60.57
2018-09-21T02:14:54.971Z,59.99
2018-09-21T02:16:11.976Z,59.70
2018-09-21T02:17:10.551Z,59.89
2018-09-21T02:18:10.970Z,60.47
2018-09-21T02:20:34.337Z,60.28
2018-09-21T02:21:31.889Z,60.16
2018-09-21T02:22:45.518Z,60.35
2018-09-21T02:24:47.079Z,60.18
2018-09-21T02:25:49.538Z,60.28
2018-09-21T02:26:51.492Z,60.18
2018-09-21T02:28:03.790Z,60.28
2018-09-21T02:29:25.099Z,60.57
2018-09-21T02:30:22.958Z,60.35
2018-09-21T02:31:31.056Z,60.28
2018-09-21T02:32:29.834Z,60.44
2018-09-21T02:33:35.167Z,59.96
2018-09-21T02:34:33.660Z,60.06
2018-09-21T02:35:58.634Z,60.09
2018-09-21T02:36:49.731Z,60.25
2018-09-21T02:37:59.676Z,60.25
2018-09-21T02:38:59.687Z,59.89
2018-09-21T02:41:24.037Z,60.16
2018-09-21T02:43:33.104Z,60.67
2018-09-21T02:44:21.649Z,60.57
2018-09-21T02:45:28.718Z,60.16
2018-09-21T02:46:35.995Z,60.06
2018-09-21T02:47:53.617Z,60.38
2018-09-21T02:48:51.440Z,60.25
2018-09-21T02:49:54.452Z,60.54
2018-09-21T02:51:09.118Z,60.64
2018-09-21T02:51:57.441Z,60.06
2018-09-21T02:53:00.622Z,60.16
2018-09-21T02:54:18.758Z,60.25
2018-09-21T02:56:28.812Z,60.06
2018-09-21T02:57:33.633Z,60.35
2018-09-21T02:58:46.851Z,60.44
2018-09-21T02:59:50.969Z,60.54
2018-09-21T03:00:51.815Z,60.64
2018-09-21T03:02:00.699Z,60.06
2018-09-21T03:02:58.565Z,60.16
2018-09-21T03:04:12.491Z,60.06
2018-09-21T03:05:16.052Z,60.64
2018-09-21T03:06:16.606Z,60.64
2018-09-21T03:07:25.010Z,60.06
2018-09-21T03:08:24.820Z,60.16
2018-09-21T03:09:38.347Z,60.25
2018-09-21T03:10:29.750Z,60.06
2018-09-21T03:11:53.824Z,60.54
2018-09-21T03:13:53.843Z,60.06
2018-09-21T03:15:01.020Z,60.35
2018-09-21T03:16:20.077Z,60.54
2018-09-21T03:19:41.304Z,60.35
2018-09-21T03:20:26.462Z,60.25
2018-09-21T03:21:43.057Z,60.16
2018-09-21T03:22:33.546Z,60.35
2018-09-21T03:23:39.798Z,60.44
2018-09-21T03:24:48.409Z,60.44
2018-09-21T03:25:59.272Z,60.54
2018-09-21T03:28:18.949Z,60.35
2018-09-21T03:30:21.528Z,60.67
2018-09-21T03:31:31.677Z,59.70
2018-09-21T03:32:28.409Z,60.06
2018-09-21T03:33:38.860Z,59.67
2018-09-21T03:34:39.074Z,59.80
2018-09-21T03:35:50.658Z,59.60
2018-09-21T03:36:52.000Z,59.99
2018-09-21T03:38:02.862Z,59.77
2018-09-21T03:39:08.115Z,59.89
2018-09-21T03:40:11.793Z,59.60
2018-09-21T03:41:17.328Z,59.89
2018-09-21T03:42:27.167Z,60.09
2018-09-21T03:43:26.971Z,59.22
2018-09-21T03:44:32.509Z,59.38
2018-09-21T03:45:36.614Z,59.80
2018-09-21T03:47:59.468Z,60.09
2018-09-21T03:48:50.775Z,60.09
2018-09-21T03:50:04.918Z,59.19
2018-09-21T03:50:59.699Z,59.00
2018-09-21T03:52:17.835Z,59.41
2018-09-21T03:53:21.428Z,58.80
2018-09-21T03:54:29.016Z,59.09
2018-09-21T03:55:30.967Z,58.93
2018-09-21T03:56:39.067Z,59.02
2018-09-21T03:57:32.217Z,59.22
2018-09-21T03:58:50.451Z,58.93
2018-09-21T03:59:41.550Z,59.12
2018-09-21T04:01:56.110Z,59.09
2018-09-21T04:03:07.590Z,58.93
2018-09-21T04:04:10.771Z,58.83
2018-09-21T04:05:13.855Z,58.83
2018-09-21T04:07:26.160Z,59.02
2018-09-21T04:09:35.394Z,58.83
2018-09-21T04:10:49.739Z,59.22
2018-09-21T04:11:56.411Z,59.12
2018-09-21T04:12:59.489Z,58.15
2018-09-21T04:14:06.769Z,59.31
2018-09-21T04:14:56.946Z,58.83
2018-09-21T04:16:11.394Z,59.12
2018-09-21T04:17:24.410Z,58.73
2018-09-21T04:18:17.862Z,58.25
2018-09-21T04:19:33.544Z,58.45
2018-09-21T04:21:35.605Z,59.02
2018-09-21T04:22:41.452Z,58.06
2018-09-21T04:23:49.860Z,58.45
2018-09-21T04:24:46.084Z,58.45
2018-09-21T04:26:03.397Z,58.25
2018-09-21T04:27:02.791Z,58.54
2018-09-21T04:28:21.232Z,58.64
2018-09-21T04:29:18.989Z,58.25
2018-09-21T04:31:26.182Z,58.45
2018-09-21T04:32:34.066Z,58.35
2018-09-21T04:33:50.882Z,58.45
2018-09-21T04:34:33.879Z,58.64
2018-09-21T04:35:55.711Z,58.35
2018-09-21T04:36:55.711Z,58.25
2018-09-21T04:38:11.488Z,57.96
2018-09-21T04:39:05.868Z,57.96
2018-09-21T04:41:25.753Z,58.35
2018-09-21T04:42:21.463Z,58.28
2018-09-21T04:43:30.889Z,58.37
2018-09-21T04:44:33.672Z,58.09
2018-09-21T04:45:54.923Z,58.57
2018-09-21T04:46:41.463Z,58.37
2018-09-21T04:48:57.047Z,58.67
2018-09-21T04:51:06.491Z,58.47
2018-09-21T04:52:16.047Z,58.67
2018-09-21T04:53:19.408Z,58.28
2018-09-21T04:54:33.665Z,58.37
2018-09-21T04:56:38.995Z,58.57
2018-09-21T04:57:48.119Z,59.05
2018-09-21T04:59:48.549Z,59.05
2018-09-21T05:02:05.054Z,58.95
2018-09-21T05:03:19.399Z,59.15
2018-09-21T05:04:17.056Z,59.44
2018-09-21T05:05:12.252Z,59.25
2018-09-21T05:06:26.595Z,58.37
2018-09-21T05:08:33.681Z,58.28
2018-09-21T05:09:32.153Z,58.67
2018-09-21T05:12:01.052Z,59.34
2018-09-21T05:16:10.305Z,59.34
2018-09-21T05:18:21.493Z,59.34
2018-09-21T05:19:43.720Z,59.05
2018-09-21T05:20:33.791Z,59.25
2018-09-21T05:21:49.982Z,59.05
2018-09-21T05:22:53.267Z,59.15
2018-09-21T05:23:46.826Z,59.15
2018-09-21T05:25:02.500Z,59.15
2018-09-21T05:26:03.330Z,58.95
2018-09-21T05:27:29.152Z,59.34
2018-09-21T05:28:31.097Z,58.86
2018-09-21T05:29:19.129Z,58.67
2018-09-21T05:30:25.993Z,59.05
2018-09-21T05:31:33.480Z,59.15
2018-09-21T05:32:49.356Z,58.86
2018-09-21T05:33:39.432Z,59.34
2018-09-21T05:34:53.982Z,58.95
2018-09-21T05:35:53.681Z,59.15
2018-09-21T05:37:02.702Z,59.15
2018-09-21T05:38:07.424Z,59.05
2018-09-21T05:39:08.783Z,59.15
2018-09-21T05:41:34.075Z,59.25
2018-09-21T05:42:33.979Z,59.44
2018-09-21T05:43:23.746Z,59.92
2018-09-21T05:44:43.726Z,60.02
2018-09-21T05:45:49.571Z,59.25
2018-09-21T05:46:50.399Z,59.83
2018-09-21T05:48:05.977Z,59.92
2018-09-21T05:48:57.378Z,59.83
2018-09-21T05:50:16.545Z,60.02
2018-09-21T05:51:17.265Z,59.76
2018-09-21T05:52:23.005Z,59.83
2018-09-21T05:53:25.269Z,59.53
2018-09-21T05:54:33.468Z,60.50
2018-09-21T05:55:29.585Z,59.73
2018-09-21T05:56:50.895Z,60.50
2018-09-21T05:57:56.441Z,60.60
2018-09-21T05:59:10.982Z,60.31
2018-09-21T06:00:02.700Z,60.31
2018-09-21T06:00:55.744Z,60.41
2018-09-21T06:03:25.226Z,60.31
2018-09-21T06:04:13.726Z,60.21
2018-09-21T06:05:27.634Z,60.21
2018-09-21T06:06:38.186Z,60.11
2018-09-21T06:07:36.662Z,60.50
2018-09-21T06:09:01.857Z,60.50
2018-09-21T06:09:45.687Z,60.69
2018-09-21T06:10:46.925Z,60.69
2018-09-21T06:15:24.642Z,60.89
2018-09-21T06:16:19.230Z,60.79
2018-09-21T06:17:34.491Z,60.99
2018-09-21T06:18:25.797Z,60.69
2018-09-21T06:19:34.928Z,61.37
2018-09-21T06:20:38.821Z,60.79
2018-09-21T06:21:45.797Z,61.47
2018-09-21T06:22:46.490Z,61.27
2018-09-21T06:23:59.739Z,61.08
2018-09-21T06:24:52.587Z,61.57
2018-09-21T06:26:08.255Z,61.27
2018-09-21T06:27:27.721Z,61.27
2018-09-21T06:28:39.608Z,61.57
2018-09-21T06:29:22.415Z,61.47
2018-09-21T06:30:38.299Z,61.27
2018-09-21T06:32:45.492Z,61.27
2018-09-21T06:33:37.476Z,61.37
2018-09-21T06:34:53.389Z,61.27
2018-09-21T06:36:07.222Z,61.57
2018-09-21T06:36:59.757Z,61.57
2018-09-21T06:38:13.385Z,61.27
2018-09-21T06:39:17.490Z,61.27
2018-09-21T06:40:11.253Z,61.37
2018-09-21T06:41:24.369Z,61.95
2018-09-21T06:42:44.048Z,61.95
2018-09-21T06:43:35.548Z,61.86
2018-09-21T06:44:40.889Z,61.57
2018-09-21T06:45:43.962Z,61.47
2018-09-21T06:46:57.700Z,60.89
2018-09-21T06:47:59.751Z,61.47
2018-09-21T06:50:08.982Z,61.37
2018-09-21T06:51:14.317Z,61.47
2018-09-21T06:52:22.929Z,61.27
2018-09-21T06:54:51.007Z,61.40
2018-09-21T06:55:43.646Z,61.47
2018-09-21T06:56:42.019Z,61.27
2018-09-21T06:57:49.607Z,61.30
2018-09-21T06:59:13.670Z,61.37
2018-09-21T07:00:06.408Z,60.60
2018-09-21T07:01:10.818Z,60.60
2018-09-21T07:02:23.938Z,60.50
2018-09-21T07:03:35.515Z,60.50
2018-09-21T07:04:29.892Z,60.69
2018-09-21T07:06:32.165Z,61.27
2018-09-21T07:07:48.656Z,60.41
2018-09-21T07:08:59.313Z,60.69
2018-09-21T07:09:49.854Z,60.69
2018-09-21T07:11:17.255Z,60.50
2018-09-21T07:12:07.332Z,60.69
2018-09-21T07:13:20.447Z,60.31
2018-09-21T07:14:14.723Z,60.31
2018-09-21T07:17:23.115Z,60.50
2018-09-21T07:18:48.451Z,60.50
2018-09-21T07:19:49.483Z,60.31
2018-09-21T07:20:54.305Z,60.89
2018-09-21T07:21:54.111Z,59.83
2018-09-21T07:23:19.004Z,60.31
2018-09-21T07:24:10.103Z,60.60
2018-09-21T07:26:37.158Z,60.31
2018-09-21T07:27:11.156Z,60.11
2018-09-21T07:29:27.691Z,60.21
2018-09-21T07:33:00.453Z,60.31
2018-09-21T07:33:46.431Z,60.11
2018-09-21T07:36:08.571Z,59.73
2018-09-21T07:37:00.186Z,60.21
2018-09-21T07:38:14.113Z,60.69
2018-09-21T07:39:19.755Z,60.60
2018-09-21T07:40:25.704Z,60.50
2018-09-21T07:41:26.741Z,60.50
2018-09-21T07:42:47.860Z,60.11
2018-09-21T07:44:58.511Z,60.21
2018-09-21T07:46:56.684Z,60.50
2018-09-21T07:48:08.164Z,60.41
2018-09-21T07:49:05.846Z,59.83
2018-09-21T07:50:17.192Z,60.02
2018-09-21T07:51:18.124Z,60.21
2018-09-21T07:52:30.216Z,60.31
2018-09-21T07:53:42.312Z,59.83
2018-09-21T07:54:36.691Z,59.34
2018-09-21T07:55:52.464Z,59.34
2018-09-21T07:56:39.471Z,58.95
2018-09-21T07:57:52.484Z,59.05
2018-09-21T07:59:08.368Z,59.15
2018-09-21T08:00:14.007Z,59.05
2018-09-21T08:01:08.793Z,59.25
2018-09-21T08:02:12.182Z,60.11
2018-09-21T08:03:36.764Z,58.86
2018-09-21T08:04:29.196Z,59.83
2018-09-21T08:05:32.893Z,59.83
2018-09-21T08:06:35.049Z,59.15
2018-09-21T08:07:40.387Z,59.15
2018-09-21T08:08:42.341Z,59.25
2018-09-21T08:09:58.533Z,59.53
2018-09-21T08:10:50.245Z,61.27
2018-09-21T08:12:12.475Z,60.41
2018-09-21T08:13:09.825Z,61.08
2018-09-21T08:14:21.507Z,60.99
2018-09-21T08:15:34.315Z,62.24
2018-09-21T08:16:40.781Z,62.53
2018-09-21T08:17:28.907Z,63.98
2018-09-21T08:18:40.392Z,63.79
2018-09-21T08:19:41.415Z,63.69
2018-09-21T08:22:13.792Z,62.21
2018-09-21T08:23:20.969Z,62.70
2018-09-21T08:24:09.201Z,62.79
2018-09-21T08:25:00.107Z,63.66
2018-09-21T08:26:21.918Z,63.47
2018-09-21T08:27:13.636Z,63.37
2018-09-21T08:28:29.922Z,63.56
2018-09-21T08:30:37.420Z,63.85
2018-09-21T08:31:46.331Z,63.28
2018-09-21T08:32:52.074Z,63.66
2018-09-21T08:33:50.650Z,63.37
2018-09-21T08:34:58.541Z,63.76
2018-09-21T08:36:23.537Z,62.89
2018-09-21T08:37:13.831Z,63.28
2018-09-21T08:38:16.593Z,63.56
2018-09-21T08:39:30.422Z,63.76
2018-09-21T08:40:29.921Z,64.72
2018-09-21T08:41:38.633Z,63.56
2018-09-21T08:42:37.109Z,64.53
2018-09-21T08:43:43.365Z,63.47
2018-09-21T08:44:41.254Z,63.56
2018-09-21T08:46:59.466Z,66.08
2018-09-21T08:48:02.958Z,65.59
2018-09-21T08:48:55.599Z,65.40
2018-09-21T08:50:17.618Z,66.56
2018-09-21T08:51:24.083Z,66.75
2018-09-21T08:52:28.901Z,65.30
2018-09-21T08:53:41.609Z,64.92
2018-09-21T08:54:46.452Z,66.27
2018-09-21T08:55:40.607Z,65.98
2018-09-21T08:57:04.372Z,66.85
2018-09-21T08:57:58.850Z,67.49
2018-09-21T08:58:59.369Z,67.49
2018-09-21T09:00:17.299Z,68.36
2018-09-21T09:01:15.362Z,70.20
2018-09-21T09:02:19.262Z,70.06
2018-09-21T09:03:23.072Z,71.12
2018-09-21T09:04:25.932Z,71.51
2018-09-21T09:07:53.310Z,73.21
2018-09-21T09:08:56.290Z,75.14
2018-09-21T09:09:54.139Z,76.68
2018-09-21T09:11:13.811Z,76.17
2018-09-21T09:12:18.128Z,77.33
2018-09-21T09:12:59.079Z,78.25
2018-09-21T09:14:11.171Z,78.92
2018-09-21T09:15:18.664Z,79.69
2018-09-21T09:17:30.865Z,80.85
2018-09-21T09:18:37.422Z,80.91
2018-09-21T09:19:35.277Z,79.75
2018-09-21T09:20:41.226Z,80.19
2018-09-21T09:21:58.749Z,80.10
2018-09-21T09:22:53.335Z,79.43
2018-09-21T09:25:33.882Z,78.81
2018-09-21T09:26:39.374Z,79.35
2018-09-21T09:28:37.798Z,78.19
2018-09-21T09:29:43.296Z,78.38
2018-09-21T09:31:41.745Z,77.76
2018-09-21T09:32:47.234Z,78.15
2018-09-21T09:34:45.661Z,76.00
2018-09-21T09:35:51.149Z,75.81
2018-09-21T09:37:49.583Z,76.86
2018-09-21T09:38:55.081Z,76.92
2018-09-21T09:40:53.501Z,77.40
2018-09-21T09:41:59.006Z,77.98
2018-09-21T09:43:57.441Z,78.75
2018-09-21T09:45:02.942Z,79.76
2018-09-21T09:47:01.370Z,80.34
2018-09-21T09:48:06.868Z,78.99
2018-09-21T09:50:05.276Z,80.53
2018-09-21T09:51:10.787Z,81.10
2018-09-21T09:53:09.210Z,80.78
2018-09-21T09:54:14.719Z,80.87
2018-09-21T09:56:13.158Z,81.93
2018-09-21T09:57:18.637Z,81.45
2018-09-21T09:59:17.567Z,81.84
2018-09-21T10:00:23.050Z,81.64
2018-09-21T10:02:21.507Z,81.54
2018-09-21T10:03:26.988Z,81.93
2018-09-21T10:05:25.393Z,82.31
2018-09-21T10:06:30.904Z,82.31
2018-09-21T10:08:29.331Z,81.54
2018-09-21T10:09:34.820Z,80.93
2018-09-21T10:11:33.244Z,81.12
2018-09-21T10:12:38.740Z,81.79
2018-09-21T10:14:37.175Z,81.79
2018-09-21T10:15:42.661Z,82.18
2018-09-21T10:17:41.109Z,82.56
2018-09-21T10:18:46.598Z,82.37
2018-09-21T10:20:45.056Z,82.46
2018-09-21T10:21:50.535Z,82.94
2018-09-21T10:23:48.945Z,84.38
2018-09-21T10:24:54.490Z,82.94
2018-09-21T10:26:52.884Z,83.33
2018-09-21T10:27:58.516Z,83.61
2018-09-21T10:29:56.837Z,83.71
2018-09-21T10:31:02.310Z,84.67
2018-09-21T10:33:00.711Z,84.48
2018-09-21T10:34:06.201Z,84.38
2018-09-21T10:36:04.642Z,85.15
2018-09-21T10:37:10.157Z,84.91
2018-09-21T10:39:08.555Z,84.44
2018-09-21T10:40:14.178Z,84.53
2018-09-21T10:42:12.531Z,84.82
2018-09-21T10:43:17.985Z,84.91
2018-09-21T10:45:16.489Z,85.97
2018-09-21T10:46:21.995Z,85.58
2018-09-21T10:48:20.417Z,85.97
2018-09-21T10:49:25.910Z,85.78
2018-09-21T10:51:24.427Z,86.25
2018-09-21T10:52:29.944Z,85.78
2018-09-21T10:54:28.461Z,86.01
2018-09-21T10:55:33.960Z,86.01
2018-09-21T10:57:32.466Z,86.40
2018-09-21T10:58:37.978Z,86.68
2018-09-21T11:00:36.540Z,86.58
2018-09-21T11:01:41.996Z,86.97
2018-09-21T11:03:40.405Z,87.07
2018-09-21T11:04:45.912Z,87.64
2018-09-21T11:06:44.431Z,87.93
2018-09-21T11:07:49.933Z,88.02
2018-09-21T11:09:48.459Z,88.02
2018-09-21T11:10:53.951Z,87.74
2018-09-21T11:12:52.464Z,87.74
2018-09-21T11:13:57.973Z,87.07
2018-09-21T11:15:56.497Z,87.16
2018-09-21T11:17:01.990Z,85.96
2018-09-21T11:19:00.517Z,85.82
2018-09-21T11:20:06.017Z,86.11
2018-09-21T11:22:04.451Z,86.92
2018-09-21T11:23:09.941Z,86.72
2018-09-21T11:25:08.453Z,87.78
2018-09-21T11:26:13.957Z,87.11
2018-09-21T11:28:12.467Z,86.82
2018-09-21T11:29:17.973Z,86.63
2018-09-21T11:31:16.509Z,87.21
2018-09-21T11:32:21.995Z,84.61
2018-09-21T11:34:20.522Z,86.44
2018-09-21T11:35:26.013Z,86.72
2018-09-21T11:37:24.540Z,85.96
2018-09-21T11:38:30.041Z,87.88
2018-09-21T11:40:28.572Z,86.54
2018-09-21T11:41:34.065Z,87.11
2018-09-21T11:43:32.558Z,85.96
2018-09-21T11:44:38.070Z,85.91
2018-09-21T11:46:36.616Z,86.48
2018-09-21T11:47:42.130Z,85.86
2018-09-21T11:49:40.628Z,85.62
2018-09-21T11:50:46.117Z,86.19
2018-09-21T11:52:44.626Z,84.85
2018-09-21T11:53:50.136Z,84.85
2018-09-21T11:55:48.660Z,85.71
2018-09-21T11:56:54.159Z,85.04
2018-09-21T11:58:52.691Z,84.37
2018-09-21T11:59:58.187Z,84.47
2018-09-21T12:01:56.764Z,85.14
2018-09-21T12:03:02.202Z,84.95
2018-09-21T12:05:00.732Z,85.18
2018-09-21T12:06:06.218Z,85.18
2018-09-21T12:08:04.738Z,83.54
2018-09-21T12:09:10.240Z,82.40
2018-09-21T12:11:09.217Z,84.22
2018-09-21T12:12:14.690Z,84.51
2018-09-21T12:14:13.191Z,84.31
2018-09-21T12:15:18.699Z,84.80
2018-09-21T12:17:17.210Z,83.74
2018-09-21T12:18:22.710Z,84.51
2018-09-21T12:20:21.221Z,84.70
2018-09-21T12:21:26.746Z,84.60
2018-09-21T12:23:25.256Z,84.60
2018-09-21T12:24:30.751Z,83.07
2018-09-21T12:26:29.260Z,80.66
2018-09-21T12:27:34.767Z,82.01
2018-09-21T12:29:33.291Z,82.63
2018-09-21T12:30:38.792Z,83.11
2018-09-21T12:32:37.311Z,81.63
2018-09-21T12:33:42.809Z,82.01
2018-09-21T12:35:41.320Z,81.38
2018-09-21T12:36:46.837Z,81.09
2018-09-21T12:38:45.361Z,81.67
2018-09-21T12:39:50.858Z,79.99
2018-09-21T12:41:49.363Z,80.76
2018-09-21T12:42:54.872Z,80.28
2018-09-21T12:44:53.394Z,80.86
2018-09-21T12:45:58.889Z,81.63
2018-09-21T12:47:57.415Z,81.05
2018-09-21T12:49:02.914Z,80.96
2018-09-21T12:51:01.566Z,80.76
2018-09-21T12:52:06.930Z,80.86
2018-09-21T12:54:05.465Z,80.86
2018-09-21T12:55:10.952Z,80.66
2018-09-21T12:57:09.474Z,80.76
2018-09-21T12:58:15.093Z,80.76
2018-09-21T13:00:13.511Z,80.86
2018-09-21T13:01:18.991Z,80.86
2018-09-21T13:03:17.523Z,81.34
2018-09-21T13:04:23.018Z,81.05
2018-09-21T13:06:21.592Z,82.01
2018-09-21T13:07:27.039Z,81.15
2018-09-21T13:09:25.567Z,81.24
2018-09-21T13:10:31.066Z,80.61
2018-09-21T13:12:29.569Z,81.28
2018-09-21T13:13:35.074Z,81.67
2018-09-21T13:15:33.595Z,80.99
2018-09-21T13:16:39.094Z,80.99
2018-09-21T13:18:37.608Z,79.36
2018-09-21T13:19:43.129Z,79.65
2018-09-21T13:21:41.645Z,78.88
2018-09-21T13:22:47.145Z,77.78
2018-09-21T13:24:45.642Z,72.41
2018-09-21T13:25:51.157Z,72.22
2018-09-21T13:27:49.693Z,70.39
2018-09-21T13:28:55.172Z,69.95
2018-09-21T13:30:53.694Z,69.46
2018-09-21T13:31:59.193Z,69.46
2018-09-21T13:33:57.733Z,69.27
2018-09-21T13:35:03.213Z,66.93
2018-09-21T13:37:01.734Z,65.78
2018-09-21T13:38:07.234Z,65.72
2018-09-21T13:40:05.756Z,65.11
2018-09-21T13:41:11.257Z,65.91
2018-09-21T13:43:09.756Z,65.69
2018-09-21T13:44:15.269Z,64.56
2018-09-21T13:46:13.793Z,66.68
2018-09-21T13:47:19.289Z,64.66
2018-09-21T13:49:17.826Z,62.23
2018-09-21T13:50:23.312Z,61.27
2018-09-21T13:52:22.240Z,63.57
2018-09-21T13:53:27.756Z,64.82
2018-09-21T13:55:26.251Z,62.99
2018-09-21T13:56:31.758Z,62.99
2018-09-21T13:58:30.276Z,63.09
2018-09-21T13:59:35.785Z,63.19
2018-09-21T14:01:34.301Z,62.45
2018-09-21T14:02:39.802Z,61.94
2018-09-21T14:04:38.324Z,62.55
2018-09-21T14:05:43.823Z,61.55
2018-09-21T14:07:42.336Z,63.02
2018-09-21T14:08:47.843Z,64.18
2018-09-21T14:10:46.350Z,64.47
2018-09-21T14:11:51.865Z,62.55
2018-09-21T14:13:50.383Z,62.45
2018-09-21T14:14:55.880Z,64.66
2018-09-21T14:16:54.398Z,63.41
2018-09-21T14:17:59.906Z,62.42
2018-09-21T14:19:58.417Z,61.58
2018-09-21T14:21:03.926Z,60.63
2018-09-21T14:23:02.440Z,63.70
2018-09-21T14:24:07.942Z,61.65
2018-09-21T14:26:06.465Z,62.90
2018-09-21T14:27:11.964Z,63.09
2018-09-21T14:29:10.567Z,63.41
2018-09-21T14:30:15.974Z,62.45
2018-09-21T14:32:14.503Z,62.16
2018-09-21T14:33:20.002Z,61.40
2018-09-21T14:35:18.517Z,58.70
2018-09-21T14:36:24.026Z,59.28
2018-09-21T14:38:22.551Z,58.13
2018-09-21T14:39:28.053Z,57.65
2018-09-21T14:41:26.575Z,59.69
2018-09-21T14:42:32.069Z,57.87
2018-09-21T14:44:30.601Z,57.87
2018-09-21T14:45:36.092Z,56.62
2018-09-21T14:47:34.594Z,57.00
2018-09-21T14:48:40.111Z,56.33
2018-09-21T14:49:45.622Z,56.14
2018-09-21T14:50:51.135Z,57.10
2018-09-21T14:51:56.652Z,57.77
2018-09-21T14:53:02.196Z,55.85
2018-09-21T14:54:07.683Z,55.46
2018-09-21T14:55:13.202Z,55.85
2018-09-21T14:56:18.709Z,56.14
2018-09-21T14:57:24.225Z,57.58
2018-09-21T14:58:29.739Z,56.52
2018-09-21T14:59:35.252Z,55.76
2018-09-21T15:00:40.771Z,56.33
2018-09-21T15:01:46.282Z,56.04
2018-09-21T15:02:51.795Z,56.43
2018-09-21T15:03:57.311Z,57.97
2018-09-21T15:05:02.826Z,54.79
2018-09-21T15:06:08.344Z,54.69
2018-09-21T15:07:13.858Z,55.66
2018-09-21T15:08:19.432Z,56.33
2018-09-21T15:09:24.894Z,55.46
2018-09-21T15:10:30.398Z,53.83
2018-09-21T15:11:35.925Z,54.79
2018-09-21T15:12:41.427Z,54.09
2018-09-21T15:13:46.945Z,54.00
2018-09-21T15:14:52.459Z,54.00
2018-09-21T15:15:57.987Z,54.00
2018-09-21T15:17:03.489Z,53.80
2018-09-21T15:18:09.002Z,54.96
2018-09-21T15:19:14.516Z,53.80
2018-09-21T15:20:20.035Z,54.86
2018-09-21T15:21:25.548Z,54.57
2018-09-21T15:22:31.061Z,54.28
2018-09-21T15:23:36.573Z,53.42
2018-09-21T15:24:42.108Z,54.00
2018-09-21T15:25:47.604Z,54.00
2018-09-21T15:26:53.134Z,54.67
2018-09-21T15:27:58.634Z,54.67
2018-09-21T15:29:04.161Z,53.90
2018-09-21T15:30:09.666Z,54.09
2018-09-21T15:31:15.187Z,54.57
2018-09-21T15:32:20.701Z,54.57
2018-09-21T15:33:26.217Z,55.05
2018-09-21T15:34:31.730Z,54.47
2018-09-21T15:35:37.244Z,55.05
2018-09-21T15:36:42.765Z,54.96
2018-09-21T15:37:48.281Z,54.86
2018-09-21T15:38:53.806Z,54.77
2018-09-21T15:39:59.305Z,54.96
2018-09-21T15:41:04.833Z,54.74
2018-09-21T15:42:10.352Z,55.02
2018-09-21T15:43:15.901Z,54.74
2018-09-21T15:44:21.373Z,55.44
2018-09-21T15:45:26.882Z,55.51
2018-09-21T15:46:32.402Z,56.18
2018-09-21T15:47:37.922Z,55.89
2018-09-21T15:48:43.438Z,56.56
2018-09-21T15:49:48.944Z,57.23
2018-09-21T15:50:54.467Z,56.37
2018-09-21T15:51:59.979Z,57.14
2018-09-21T15:53:05.492Z,57.23
2018-09-21T15:54:11.011Z,57.14
2018-09-21T15:55:16.523Z,56.66
2018-09-21T15:56:22.048Z,57.23
2018-09-21T15:57:27.568Z,57.33
2018-09-21T15:58:33.072Z,56.37
2018-09-21T15:59:38.584Z,57.04
2018-09-21T16:00:44.101Z,57.23
2018-09-21T16:01:49.628Z,57.23
2018-09-21T16:02:55.137Z,57.04
2018-09-21T16:04:00.647Z,57.14
2018-09-21T16:05:06.165Z,57.33
2018-09-21T16:06:11.677Z,57.52
2018-09-21T16:07:17.195Z,56.95
2018-09-21T16:08:22.713Z,57.23
2018-09-21T16:09:28.221Z,56.46
2018-09-21T16:10:33.734Z,56.18
2018-09-21T16:11:39.259Z,56.46
2018-09-21T16:12:44.772Z,57.71
2018-09-21T16:13:50.283Z,57.71
2018-09-21T16:14:55.805Z,57.33
2018-09-21T16:16:01.313Z,55.69
2018-09-21T16:17:06.829Z,56.46
2018-09-21T16:18:12.353Z,56.18
2018-09-21T16:19:17.861Z,56.08
2018-09-21T16:20:23.375Z,55.89
2018-09-21T16:21:28.890Z,55.60
2018-09-21T16:22:34.404Z,56.76
2018-09-21T16:23:39.917Z,55.69
2018-09-21T16:24:45.438Z,56.08
2018-09-21T16:25:50.959Z,55.51
2018-09-21T16:26:56.464Z,55.79
2018-09-21T16:28:01.978Z,54.74
2018-09-21T16:29:07.500Z,56.08
2018-09-21T16:30:13.024Z,54.64
2018-09-21T16:31:18.537Z,54.83
2018-09-21T16:32:24.041Z,54.64
2018-09-21T16:33:29.558Z,54.74
2018-09-21T16:34:35.069Z,54.74
2018-09-21T16:35:40.602Z,54.55
2018-09-21T16:36:46.182Z,52.72
2018-09-21T16:37:51.628Z,51.95
2018-09-21T16:38:57.144Z,53.20
2018-09-21T16:40:02.664Z,53.01
2018-09-21T16:41:08.162Z,51.57
2018-09-21T16:42:13.694Z,52.72
2018-09-21T16:43:19.191Z,52.60
2018-09-21T16:44:24.708Z,53.01
2018-09-21T16:45:30.227Z,52.34
2018-09-21T16:46:35.745Z,52.43
2018-09-21T16:47:41.257Z,53.49
2018-09-21T16:48:46.775Z,53.39